Marine Rouge — JG5115 — position and weather

sailwx.info

Track history (hours):
 
Tides and Currents Weather Stations Pressure Air Temp Water Temp Dewpoint Dewpoint Depression Visibility Wind Speed Wind Dir Waves Ship Positions

Marine Rouge

Last reported at 2014-Nov-23 12:33 UTC. Time now 2014-Nov-23 13:30 UTC.
Position N 35°27' E 139°39'.

Length 52 m; draft 2.8 m.

Type: Passenger vessel. MMSI: 431000518.

Date/timePositionNaut miles runAvg speedWind from/ knotsBaromVisibWave heightAir tempDewpointWater temp
2014-Nov-23 12:33N 35°27' E 139°39'2 1.5
2014-Nov-23 11:33N 35°28' E 139°40'1 1.2
2014-Nov-23 10:33N 35°27' E 139°39'1 0.6
2014-Nov-23 09:33N 35°27' E 139°39'0 0.1
2014-Nov-23 08:33N 35°27' E 139°39'0 0.5
2014-Nov-23 07:33N 35°27' E 139°39'1 0.5
2014-Nov-23 06:33N 35°27' E 139°39'0 0.0
2014-Nov-23 05:33N 35°27' E 139°39'0 0.0
2014-Nov-23 04:33N 35°27' E 139°39'1 0.5
2014-Nov-23 03:33N 35°27' E 139°39'1 0.5
2014-Nov-23 02:33N 35°27' E 139°39'0 0.0
2014-Nov-23 01:33N 35°27' E 139°39'0 0.0
2014-Nov-23 00:33N 35°27' E 139°39'0 0.0
2014-Nov-22 12:30N 35°27' E 139°39'1 0.8
2014-Nov-22 11:34N 35°28' E 139°39'0 0.2
2014-Nov-22 10:33N 35°27' E 139°40'1 0.8
2014-Nov-22 09:33N 35°27' E 139°39'0 0.0
2014-Nov-22 08:34N 35°27' E 139°39'1 0.5
2014-Nov-22 07:33N 35°27' E 139°39'0 0.4
2014-Nov-22 06:34N 35°27' E 139°39'0 0.3
2014-Nov-22 05:33N 35°27' E 139°39'0 0.1
2014-Nov-22 04:34N 35°27' E 139°39'1 0.6
2014-Nov-22 03:33N 35°27' E 139°39'1 0.6
2014-Nov-22 02:34N 35°27' E 139°39'0 0.0
2014-Nov-22 01:33N 35°27' E 139°39'0 0.0
2014-Nov-22 00:33N 35°27' E 139°39'1 0.0
2014-Nov-21 12:33N 35°27' E 139°39'1 0.7
2014-Nov-21 11:33N 35°28' E 139°39'1 0.7
2014-Nov-21 10:33N 35°27' E 139°39'1 0.5
2014-Nov-21 09:33N 35°27' E 139°39'0 0.0
2014-Nov-21 08:33N 35°27' E 139°39'1 0.6
2014-Nov-21 07:34N 35°27' E 139°39'1 0.6
2014-Nov-21 06:33N 35°27' E 139°39'0 0.1
2014-Nov-21 05:33N 35°27' E 139°39'3 2.7
2014-Nov-21 04:33N 35°28' E 139°42'3 2.9
2014-Nov-21 03:33N 35°27' E 139°39'1 0.5
2014-Nov-21 02:33N 35°27' E 139°39'0 0.0
2014-Nov-21 01:33N 35°27' E 139°39'0 0.0
2014-Nov-21 00:33N 35°27' E 139°39'0 0.0
2014-Nov-20 12:29N 35°27' E 139°39'2 2.0
2014-Nov-20 11:33N 35°28' E 139°41'2 1.8
2014-Nov-20 10:34N 35°27' E 139°39'1 0.6
2014-Nov-20 09:33N 35°27' E 139°39'1 0.9
2014-Nov-20 08:33N 35°28' E 139°39'0 0.4
2014-Nov-20 07:33N 35°27' E 139°39'1 0.5
2014-Nov-20 06:33N 35°27' E 139°39'0 0.1
2014-Nov-20 05:33N 35°27' E 139°39'0 0.1
2014-Nov-20 04:33N 35°27' E 139°39'1 0.5
2014-Nov-20 03:33N 35°27' E 139°39'1 0.5
2014-Nov-20 02:33N 35°27' E 139°39'0 0.0
2014-Nov-20 01:33N 35°27' E 139°39'0 0.0
2014-Nov-20 00:34N 35°27' E 139°39'0 0.0
2014-Nov-19 12:26N 35°27' E 139°39'2 2.3
2014-Nov-19 11:33N 35°28' E 139°41'2 2.0
2014-Nov-19 10:34N 35°27' E 139°39'1 0.6
2014-Nov-19 09:33N 35°27' E 139°39'0 0.0
2014-Nov-19 08:33N 35°27' E 139°39'1 0.6
2014-Nov-19 07:33N 35°27' E 139°39'1 0.6
2014-Nov-19 06:33N 35°27' E 139°39'0 0.1
2014-Nov-19 05:33N 35°27' E 139°39'0 0.3
2014-Nov-19 04:33N 35°27' E 139°39'0 0.4
2014-Nov-19 03:33N 35°27' E 139°40'1 0.8
2014-Nov-19 02:33N 35°27' E 139°39'0 0.0
2014-Nov-19 01:33N 35°27' E 139°39'0 0.0
2014-Nov-19 00:33N 35°27' E 139°39'1 0.1
2014-Nov-18 11:33N 35°28' E 139°39'1 0.5
2014-Nov-18 10:33N 35°27' E 139°40'1 0.8
2014-Nov-18 09:33N 35°27' E 139°39'0 0.0
2014-Nov-18 08:33N 35°27' E 139°39'1 1.3
2014-Nov-18 07:33N 35°27' E 139°41'1 1.2
2014-Nov-18 06:33N 35°27' E 139°39'0 0.1
2014-Nov-18 05:34N 35°27' E 139°39'0 0.1
2014-Nov-18 04:33N 35°27' E 139°39'1 0.9
2014-Nov-18 03:33N 35°27' E 139°40'1 0.9
2014-Nov-18 02:33N 35°27' E 139°39'0 0.0
2014-Nov-18 01:33N 35°27' E 139°39'0 0.0
2014-Nov-18 00:33N 35°27' E 139°39'0 0.0
2014-Nov-17 12:34N 35°27' E 139°39'1 0.9
2014-Nov-17 11:33N 35°28' E 139°39'0 0.3
2014-Nov-17 10:34N 35°27' E 139°39'1 0.6
2014-Nov-17 09:33N 35°27' E 139°39'0 0.0
2014-Nov-17 08:33N 35°27' E 139°39'3 2.9
2014-Nov-17 07:33N 35°28' E 139°42'3 2.7
2014-Nov-17 06:33N 35°27' E 139°39'0 0.3
2014-Nov-17 05:33N 35°27' E 139°39'1 0.6
2014-Nov-17 04:34N 35°27' E 139°39'0 0.4
2014-Nov-17 03:33N 35°27' E 139°39'1 0.6
2014-Nov-17 02:33N 35°27' E 139°39'0 0.0
2014-Nov-17 01:34N 35°27' E 139°39'0 0.0
2014-Nov-17 00:33N 35°27' E 139°39'1 0.0
2014-Nov-16 12:33N 35°27' E 139°39'1 0.7
2014-Nov-16 11:33N 35°28' E 139°39'1 0.7
2014-Nov-16 10:33N 35°27' E 139°39'1 0.5
2014-Nov-16 09:33N 35°27' E 139°39'0 0.0
2014-Nov-16 08:33N 35°27' E 139°39'1 0.5
2014-Nov-16 07:33N 35°27' E 139°39'1 0.5
2014-Nov-16 06:33N 35°27' E 139°39'0 0.1
2014-Nov-16 05:33N 35°27' E 139°39'0 0.2
2014-Nov-16 04:33N 35°27' E 139°39'1 0.5
2014-Nov-16 03:33N 35°27' E 139°39'1 0.5
2014-Nov-16 02:33N 35°27' E 139°39'0 0.0
2014-Nov-16 01:33N 35°27' E 139°39'0 0.0
2014-Nov-16 00:33N 35°27' E 139°39'0 0.0
2014-Nov-15 12:30N 35°27' E 139°39'1 1.0
2014-Nov-15 11:33N 35°28' E 139°39'1 1.1
2014-Nov-15 10:34N 35°27' E 139°40'1 0.9
2014-Nov-15 09:33N 35°27' E 139°39'0 0.0
2014-Nov-15 08:34N 35°27' E 139°39'1 0.5
2014-Nov-15 07:34N 35°27' E 139°39'1 0.5
2014-Nov-15 06:34N 35°27' E 139°39'0 0.1
2014-Nov-15 05:34N 35°27' E 139°39'0 0.3
2014-Nov-15 04:34N 35°27' E 139°39'0 0.5
2014-Nov-15 03:34N 35°27' E 139°39'1 0.5
2014-Nov-15 02:33N 35°27' E 139°39'0 0.0
2014-Nov-15 01:33N 35°27' E 139°39'0 0.0
2014-Nov-15 00:33N 35°27' E 139°39'1 0.1
2014-Nov-14 11:33N 35°28' E 139°40'1 0.7
2014-Nov-14 10:33N 35°27' E 139°40'1 1.1
2014-Nov-14 09:33N 35°27' E 139°39'0 0.0
2014-Nov-14 08:33N 35°27' E 139°39'1 1.5
2014-Nov-14 07:33N 35°27' E 139°41'1 1.5
2014-Nov-14 06:33N 35°27' E 139°39'0 0.0
2014-Nov-14 05:34N 35°27' E 139°39'1 1.4
2014-Nov-14 04:33N 35°28' E 139°40'1 1.4
2014-Nov-14 03:33N 35°27' E 139°39'1 0.5
2014-Nov-14 02:33N 35°27' E 139°39'0 0.0
2014-Nov-14 01:33N 35°27' E 139°39'  
Track history (hours):
 
Tides and Currents Weather Stations Pressure Air Temp Water Temp Dewpoint Dewpoint Depression Visibility Wind Speed Wind Dir Waves Ship Positions

Marine Rouge

Last reported at 2014-Nov-23 12:33 UTC. Time now 2014-Nov-23 13:30 UTC.
Position N 35°27' E 139°39'.

Length 52 m; draft 2.8 m.

Type: Passenger vessel. MMSI: 431000518.

Date/timePositionNaut miles runAvg speedWind from/ knotsBaromVisibWave heightAir tempDewpointWater temp
2014-Nov-23 12:33N 35°27' E 139°39'2 1.5
2014-Nov-23 11:33N 35°28' E 139°40'1 1.2
2014-Nov-23 10:33N 35°27' E 139°39'1 0.6
2014-Nov-23 09:33N 35°27' E 139°39'0 0.1
2014-Nov-23 08:33N 35°27' E 139°39'0 0.5
2014-Nov-23 07:33N 35°27' E 139°39'1 0.5
2014-Nov-23 06:33N 35°27' E 139°39'0 0.0
2014-Nov-23 05:33N 35°27' E 139°39'0 0.0
2014-Nov-23 04:33N 35°27' E 139°39'1 0.5
2014-Nov-23 03:33N 35°27' E 139°39'1 0.5
2014-Nov-23 02:33N 35°27' E 139°39'0 0.0
2014-Nov-23 01:33N 35°27' E 139°39'0 0.0
2014-Nov-23 00:33N 35°27' E 139°39'0 0.0
2014-Nov-22 12:30N 35°27' E 139°39'1 0.8
2014-Nov-22 11:34N 35°28' E 139°39'0 0.2
2014-Nov-22 10:33N 35°27' E 139°40'1 0.8
2014-Nov-22 09:33N 35°27' E 139°39'0 0.0
2014-Nov-22 08:34N 35°27' E 139°39'1 0.5
2014-Nov-22 07:33N 35°27' E 139°39'0 0.4
2014-Nov-22 06:34N 35°27' E 139°39'0 0.3
2014-Nov-22 05:33N 35°27' E 139°39'0 0.1
2014-Nov-22 04:34N 35°27' E 139°39'1 0.6
2014-Nov-22 03:33N 35°27' E 139°39'1 0.6
2014-Nov-22 02:34N 35°27' E 139°39'0 0.0
2014-Nov-22 01:33N 35°27' E 139°39'0 0.0
2014-Nov-22 00:33N 35°27' E 139°39'1 0.0
2014-Nov-21 12:33N 35°27' E 139°39'1 0.7
2014-Nov-21 11:33N 35°28' E 139°39'1 0.7
2014-Nov-21 10:33N 35°27' E 139°39'1 0.5
2014-Nov-21 09:33N 35°27' E 139°39'0 0.0
2014-Nov-21 08:33N 35°27' E 139°39'1 0.6
2014-Nov-21 07:34N 35°27' E 139°39'1 0.6
2014-Nov-21 06:33N 35°27' E 139°39'0 0.1
2014-Nov-21 05:33N 35°27' E 139°39'3 2.7
2014-Nov-21 04:33N 35°28' E 139°42'3 2.9
2014-Nov-21 03:33N 35°27' E 139°39'1 0.5
2014-Nov-21 02:33N 35°27' E 139°39'0 0.0
2014-Nov-21 01:33N 35°27' E 139°39'0 0.0
2014-Nov-21 00:33N 35°27' E 139°39'0 0.0
2014-Nov-20 12:29N 35°27' E 139°39'2 2.0
2014-Nov-20 11:33N 35°28' E 139°41'2 1.8
2014-Nov-20 10:34N 35°27' E 139°39'1 0.6
2014-Nov-20 09:33N 35°27' E 139°39'1 0.9
2014-Nov-20 08:33N 35°28' E 139°39'0 0.4
2014-Nov-20 07:33N 35°27' E 139°39'1 0.5
2014-Nov-20 06:33N 35°27' E 139°39'0 0.1
2014-Nov-20 05:33N 35°27' E 139°39'0 0.1
2014-Nov-20 04:33N 35°27' E 139°39'1 0.5
2014-Nov-20 03:33N 35°27' E 139°39'1 0.5
2014-Nov-20 02:33N 35°27' E 139°39'0 0.0
2014-Nov-20 01:33N 35°27' E 139°39'0 0.0
2014-Nov-20 00:34N 35°27' E 139°39'0 0.0
2014-Nov-19 12:26N 35°27' E 139°39'2 2.3
2014-Nov-19 11:33N 35°28' E 139°41'2 2.0
2014-Nov-19 10:34N 35°27' E 139°39'1 0.6
2014-Nov-19 09:33N 35°27' E 139°39'0 0.0
2014-Nov-19 08:33N 35°27' E 139°39'1 0.6
2014-Nov-19 07:33N 35°27' E 139°39'1 0.6
2014-Nov-19 06:33N 35°27' E 139°39'0 0.1
2014-Nov-19 05:33N 35°27' E 139°39'0 0.3
2014-Nov-19 04:33N 35°27' E 139°39'0 0.4
2014-Nov-19 03:33N 35°27' E 139°40'1 0.8
2014-Nov-19 02:33N 35°27' E 139°39'0 0.0
2014-Nov-19 01:33N 35°27' E 139°39'0 0.0
2014-Nov-19 00:33N 35°27' E 139°39'1 0.1
2014-Nov-18 11:33N 35°28' E 139°39'1 0.5
2014-Nov-18 10:33N 35°27' E 139°40'1 0.8
2014-Nov-18 09:33N 35°27' E 139°39'0 0.0
2014-Nov-18 08:33N 35°27' E 139°39'1 1.3
2014-Nov-18 07:33N 35°27' E 139°41'1 1.2
2014-Nov-18 06:33N 35°27' E 139°39'0 0.1
2014-Nov-18 05:34N 35°27' E 139°39'0 0.1
2014-Nov-18 04:33N 35°27' E 139°39'1 0.9
2014-Nov-18 03:33N 35°27' E 139°40'1 0.9
2014-Nov-18 02:33N 35°27' E 139°39'0 0.0
2014-Nov-18 01:33N 35°27' E 139°39'0 0.0
2014-Nov-18 00:33N 35°27' E 139°39'0 0.0
2014-Nov-17 12:34N 35°27' E 139°39'1 0.9
2014-Nov-17 11:33N 35°28' E 139°39'0 0.3
2014-Nov-17 10:34N 35°27' E 139°39'1 0.6
2014-Nov-17 09:33N 35°27' E 139°39'0 0.0
2014-Nov-17 08:33N 35°27' E 139°39'3 2.9
2014-Nov-17 07:33N 35°28' E 139°42'3 2.7
2014-Nov-17 06:33N 35°27' E 139°39'0 0.3
2014-Nov-17 05:33N 35°27' E 139°39'1 0.6
2014-Nov-17 04:34N 35°27' E 139°39'0 0.4
2014-Nov-17 03:33N 35°27' E 139°39'1 0.6
2014-Nov-17 02:33N 35°27' E 139°39'0 0.0
2014-Nov-17 01:34N 35°27' E 139°39'0 0.0
2014-Nov-17 00:33N 35°27' E 139°39'1 0.0
2014-Nov-16 12:33N 35°27' E 139°39'1 0.7
2014-Nov-16 11:33N 35°28' E 139°39'1 0.7
2014-Nov-16 10:33N 35°27' E 139°39'1 0.5
2014-Nov-16 09:33N 35°27' E 139°39'0 0.0
2014-Nov-16 08:33N 35°27' E 139°39'1 0.5
2014-Nov-16 07:33N 35°27' E 139°39'1 0.5
2014-Nov-16 06:33N 35°27' E 139°39'0 0.1
2014-Nov-16 05:33N 35°27' E 139°39'0 0.2
2014-Nov-16 04:33N 35°27' E 139°39'1 0.5
2014-Nov-16 03:33N 35°27' E 139°39'1 0.5
2014-Nov-16 02:33N 35°27' E 139°39'0 0.0
2014-Nov-16 01:33N 35°27' E 139°39'0 0.0
2014-Nov-16 00:33N 35°27' E 139°39'0 0.0
2014-Nov-15 12:30N 35°27' E 139°39'1 1.0
2014-Nov-15 11:33N 35°28' E 139°39'1 1.1
2014-Nov-15 10:34N 35°27' E 139°40'1 0.9
2014-Nov-15 09:33N 35°27' E 139°39'0 0.0
2014-Nov-15 08:34N 35°27' E 139°39'1 0.5
2014-Nov-15 07:34N 35°27' E 139°39'1 0.5
2014-Nov-15 06:34N 35°27' E 139°39'0 0.1
2014-Nov-15 05:34N 35°27' E 139°39'0 0.3
2014-Nov-15 04:34N 35°27' E 139°39'0 0.5
2014-Nov-15 03:34N 35°27' E 139°39'1 0.5
2014-Nov-15 02:33N 35°27' E 139°39'0 0.0
2014-Nov-15 01:33N 35°27' E 139°39'0 0.0
2014-Nov-15 00:33N 35°27' E 139°39'1 0.1
2014-Nov-14 11:33N 35°28' E 139°40'1 0.7
2014-Nov-14 10:33N 35°27' E 139°40'1 1.1
2014-Nov-14 09:33N 35°27' E 139°39'0 0.0
2014-Nov-14 08:33N 35°27' E 139°39'1 1.5
2014-Nov-14 07:33N 35°27' E 139°41'1 1.5
2014-Nov-14 06:33N 35°27' E 139°39'0 0.0
2014-Nov-14 05:34N 35°27' E 139°39'1 1.4
2014-Nov-14 04:33N 35°28' E 139°40'1 1.4
2014-Nov-14 03:33N 35°27' E 139°39'1 0.5
2014-Nov-14 02:33N 35°27' E 139°39'0 0.0
2014-Nov-14 01:33N 35°27' E 139°39'  

Dump ship's entire track history